createdAt,value
2017-11-21T00:00:40.323Z,9.53
2017-11-21T00:01:20.913Z,9.54
2017-11-21T00:02:01.504Z,9.58
2017-11-21T00:02:42.056Z,9.6
2017-11-21T00:03:22.617Z,9.6
2017-11-21T00:04:03.171Z,9.6
2017-11-21T00:04:43.911Z,9.68
2017-11-21T00:05:24.480Z,9.65
2017-11-21T00:06:05.080Z,9.75
2017-11-21T00:06:45.645Z,9.69
2017-11-21T00:07:26.217Z,9.72
2017-11-21T00:08:06.841Z,9.81
2017-11-21T00:08:47.386Z,9.75
2017-11-21T00:09:27.938Z,9.78
2017-11-21T00:10:08.521Z,9.81
2017-11-21T00:10:49.077Z,9.79
2017-11-21T00:11:29.653Z,9.78
2017-11-21T00:12:10.203Z,9.72
2017-11-21T00:12:50.778Z,9.74
2017-11-21T00:13:31.360Z,9.74
2017-11-21T00:14:11.929Z,9.78
2017-11-21T00:14:52.500Z,9.83
2017-11-21T00:15:33.084Z,9.81
2017-11-21T00:16:13.655Z,9.81
2017-11-21T00:16:54.221Z,9.76
2017-11-21T00:17:34.803Z,9.76
2017-11-21T00:18:15.382Z,9.71
2017-11-21T00:18:55.940Z,9.76
2017-11-21T00:19:36.496Z,9.69
2017-11-21T00:20:17.051Z,9.74
2017-11-21T00:20:57.623Z,9.71
2017-11-21T00:21:38.194Z,9.68
2017-11-21T00:22:19.764Z,9.71
2017-11-21T00:23:00.479Z,9.84
2017-11-21T00:23:41.074Z,9.78
2017-11-21T00:24:21.628Z,9.86
2017-11-21T00:25:02.193Z,9.76
2017-11-21T00:25:42.778Z,9.74
2017-11-21T00:26:23.323Z,9.83
2017-11-21T00:27:03.889Z,9.84
2017-11-21T00:27:44.441Z,9.75
2017-11-21T00:28:25.014Z,9.76
2017-11-21T00:29:05.626Z,9.83
2017-11-21T00:29:46.187Z,9.79
2017-11-21T00:30:26.754Z,9.75
2017-11-21T00:31:07.326Z,9.75
2017-11-21T00:31:47.871Z,9.78
2017-11-21T00:32:28.431Z,9.76
2017-11-21T00:33:09.000Z,9.78
2017-11-21T00:33:49.564Z,9.71
2017-11-21T00:34:30.129Z,9.68
2017-11-21T00:35:10.698Z,9.74
2017-11-21T00:35:51.264Z,9.72
2017-11-21T00:36:31.851Z,9.71
2017-11-21T00:37:12.413Z,9.78
2017-11-21T00:37:52.988Z,9.74
2017-11-21T00:38:33.541Z,9.69
2017-11-21T00:39:14.095Z,9.76
2017-11-21T00:39:54.664Z,9.69
2017-11-21T00:40:35.213Z,9.72
2017-11-21T00:41:15.774Z,9.74
2017-11-21T00:41:56.373Z,9.75
2017-11-21T00:42:36.932Z,9.75
2017-11-21T00:43:17.505Z,9.79
2017-11-21T00:43:58.084Z,9.87
2017-11-21T00:44:38.633Z,9.79
2017-11-21T00:45:19.221Z,9.75
2017-11-21T00:45:59.786Z,9.75
2017-11-21T00:46:40.351Z,9.78
2017-11-21T00:47:20.936Z,9.86
2017-11-21T00:48:01.497Z,9.78
2017-11-21T00:48:42.068Z,9.74
2017-11-21T00:49:22.667Z,9.78
2017-11-21T00:50:03.242Z,9.68
2017-11-21T00:50:43.802Z,9.74
2017-11-21T00:51:24.354Z,9.71
2017-11-21T00:52:04.901Z,9.74
2017-11-21T00:52:45.494Z,9.71
2017-11-21T00:53:26.067Z,9.68
2017-11-21T00:54:06.620Z,9.69
2017-11-21T00:54:47.189Z,9.68
2017-11-21T00:55:27.755Z,9.74
2017-11-21T00:56:08.310Z,9.75
2017-11-21T00:56:48.881Z,9.84
2017-11-21T00:57:29.451Z,9.83
2017-11-21T00:58:10.009Z,9.75
2017-11-21T00:58:50.590Z,9.75
2017-11-21T00:59:31.150Z,9.71
2017-11-21T01:00:11.753Z,9.72
2017-11-21T01:02:25.080Z,9.74
2017-11-21T01:03:05.639Z,9.74
2017-11-21T01:03:46.207Z,9.78
2017-11-21T01:04:26.727Z,9.71
2017-11-21T01:05:07.345Z,9.66
2017-11-21T01:05:47.910Z,9.75
2017-11-21T01:06:28.470Z,9.69
2017-11-21T01:07:09.027Z,9.75
2017-11-21T01:07:49.580Z,9.76
2017-11-21T01:08:30.137Z,9.71
2017-11-21T01:09:10.707Z,9.74
2017-11-21T01:09:51.276Z,9.68
2017-11-21T01:10:31.823Z,9.68
2017-11-21T01:11:12.388Z,9.66
2017-11-21T01:11:52.966Z,9.72
2017-11-21T01:12:33.523Z,9.69
2017-11-21T01:13:14.069Z,9.83
2017-11-21T01:13:54.621Z,9.69
2017-11-21T01:14:35.188Z,9.74
2017-11-21T01:15:15.738Z,9.69
2017-11-21T01:15:56.319Z,9.74
2017-11-21T01:16:36.875Z,9.75
2017-11-21T01:17:17.459Z,9.75
2017-11-21T01:17:58.015Z,9.68
2017-11-21T01:18:38.566Z,9.72
2017-11-21T01:19:19.119Z,9.71
2017-11-21T01:19:59.694Z,9.72
2017-11-21T01:20:40.253Z,9.78
2017-11-21T01:21:20.812Z,9.81
2017-11-21T01:22:01.350Z,9.79
2017-11-21T01:22:41.908Z,9.68
2017-11-21T01:23:22.479Z,9.66
2017-11-21T01:24:03.050Z,9.69
2017-11-21T01:24:43.613Z,9.66
2017-11-21T01:25:24.172Z,9.79
2017-11-21T01:26:04.737Z,9.68
2017-11-21T01:26:45.297Z,9.78
2017-11-21T01:27:25.869Z,9.78
2017-11-21T01:28:06.413Z,9.72
2017-11-21T01:28:46.958Z,9.83
2017-11-21T01:29:27.517Z,9.76
2017-11-21T01:30:08.077Z,9.84
2017-11-21T01:30:48.657Z,9.83
2017-11-21T01:31:29.225Z,9.81
2017-11-21T01:32:09.790Z,9.83
2017-11-21T01:32:50.366Z,9.79
2017-11-21T01:33:30.907Z,9.96
2017-11-21T01:34:11.552Z,9.89
2017-11-21T01:34:52.111Z,9.87
2017-11-21T01:35:32.675Z,9.87
2017-11-21T01:36:13.264Z,9.89
2017-11-21T01:36:53.851Z,9.91
2017-11-21T01:37:34.392Z,9.87
2017-11-21T01:38:14.950Z,9.84
2017-11-21T01:38:55.511Z,9.74
2017-11-21T01:39:36.077Z,9.78
2017-11-21T01:40:16.952Z,9.79
2017-11-21T01:40:57.501Z,9.83
2017-11-21T01:41:38.088Z,9.79
2017-11-21T01:42:18.710Z,9.75
2017-11-21T01:42:59.285Z,9.79
2017-11-21T01:43:39.847Z,9.81
2017-11-21T01:44:20.417Z,9.78
2017-11-21T01:45:00.985Z,9.78
2017-11-21T01:45:41.546Z,9.76
2017-11-21T01:46:22.081Z,9.75
2017-11-21T01:47:02.650Z,9.78
2017-11-21T01:47:43.186Z,9.91
2017-11-21T01:48:23.789Z,9.86
2017-11-21T01:49:04.351Z,9.83
2017-11-21T01:49:44.933Z,9.79
2017-11-21T01:50:25.496Z,9.74
2017-11-21T01:51:06.039Z,9.69
2017-11-21T01:51:46.597Z,9.65
2017-11-21T01:52:27.165Z,9.69
2017-11-21T01:53:07.722Z,9.74
2017-11-21T01:53:48.289Z,9.72
2017-11-21T01:54:28.853Z,9.72
2017-11-21T01:55:09.436Z,9.74
2017-11-21T01:55:49.993Z,9.78
2017-11-21T01:56:30.568Z,9.72
2017-11-21T01:57:11.122Z,9.84
2017-11-21T01:57:51.664Z,9.71
2017-11-21T01:58:32.241Z,9.83
2017-11-21T01:59:12.816Z,9.83
2017-11-21T01:59:53.384Z,9.78
2017-11-21T02:00:34.192Z,9.76
2017-11-21T02:01:14.763Z,9.72
2017-11-21T02:01:55.346Z,9.78
2017-11-21T02:02:35.907Z,9.74
2017-11-21T02:03:16.474Z,9.86
2017-11-21T02:03:57.054Z,9.86
2017-11-21T02:04:37.600Z,9.87
2017-11-21T02:05:18.160Z,9.79
2017-11-21T02:05:58.736Z,9.86
2017-11-21T02:06:39.300Z,9.94
2017-11-21T02:07:19.895Z,9.96
2017-11-21T02:08:00.454Z,9.84
2017-11-21T02:08:41.021Z,9.86
2017-11-21T02:09:21.587Z,9.87
2017-11-21T02:10:02.147Z,9.86
2017-11-21T02:10:42.703Z,9.81
2017-11-21T02:11:23.252Z,9.9
2017-11-21T02:12:03.830Z,9.94
2017-11-21T02:12:44.400Z,9.94
2017-11-21T02:13:24.945Z,9.84
2017-11-21T02:14:05.483Z,9.84
2017-11-21T02:14:46.039Z,9.87
2017-11-21T02:15:26.585Z,9.94
2017-11-21T02:16:07.171Z,9.9
2017-11-21T02:16:47.720Z,9.84
2017-11-21T02:17:28.315Z,9.86
2017-11-21T02:18:08.882Z,9.87
2017-11-21T02:18:49.451Z,9.89
2017-11-21T02:19:30.027Z,9.96
2017-11-21T02:20:10.592Z,9.79
2017-11-21T02:20:51.162Z,9.79
2017-11-21T02:21:31.721Z,9.79
2017-11-21T02:22:12.280Z,9.86
2017-11-21T02:22:52.841Z,9.76
2017-11-21T02:23:33.390Z,9.75
2017-11-21T02:24:13.954Z,9.84
2017-11-21T02:24:54.520Z,9.83
2017-11-21T02:25:35.083Z,9.74
2017-11-21T02:26:15.659Z,9.72
2017-11-21T02:26:56.203Z,9.75
2017-11-21T02:27:36.745Z,9.86
2017-11-21T02:28:17.315Z,9.87
2017-11-21T02:28:57.912Z,9.72
2017-11-21T02:29:38.469Z,9.79
2017-11-21T02:30:19.030Z,9.89
2017-11-21T02:30:59.574Z,9.84
2017-11-21T02:31:40.184Z,9.76
2017-11-21T02:32:20.745Z,9.78
2017-11-21T02:33:01.309Z,9.89
2017-11-21T02:33:41.865Z,9.89
2017-11-21T02:34:22.430Z,9.86
2017-11-21T02:35:02.983Z,9.97
2017-11-21T02:35:43.534Z,9.97
2017-11-21T02:36:24.084Z,10.01
2017-11-21T02:37:04.659Z,9.97
2017-11-21T02:37:45.223Z,9.99
2017-11-21T02:38:25.788Z,9.99
2017-11-21T02:39:06.383Z,9.96
2017-11-21T02:39:46.934Z,10.02
2017-11-21T02:40:27.479Z,10.02
2017-11-21T02:41:08.015Z,9.99
2017-11-21T02:41:48.568Z,10.08
2017-11-21T02:42:29.118Z,10.11
2017-11-21T02:43:09.686Z,10.07
2017-11-21T02:43:50.249Z,10.07
2017-11-21T02:44:30.816Z,10.04
2017-11-21T02:45:11.381Z,10.05
2017-11-21T02:45:51.934Z,10.14
2017-11-21T02:46:32.467Z,10.07
2017-11-21T02:47:12.993Z,9.97
2017-11-21T02:47:53.624Z,9.99
2017-11-21T02:48:34.192Z,9.99
2017-11-21T02:49:14.756Z,10.01
2017-11-21T02:49:55.317Z,10.04
2017-11-21T02:50:35.870Z,10.08
2017-11-21T02:51:16.428Z,9.96
2017-11-21T02:51:57.024Z,9.96
2017-11-21T02:52:37.592Z,9.93
2017-11-21T02:53:18.147Z,9.91
2017-11-21T02:53:58.709Z,9.93
2017-11-21T02:54:39.253Z,9.99
2017-11-21T02:55:19.782Z,9.93
2017-11-21T02:56:00.285Z,9.87
2017-11-21T02:56:40.867Z,9.86
2017-11-21T02:57:21.439Z,9.86
2017-11-21T02:58:02.015Z,9.86
2017-11-21T02:58:42.577Z,9.83
2017-11-21T02:59:23.155Z,9.81
2017-11-21T03:00:03.710Z,9.9
2017-11-21T03:00:44.288Z,9.94
2017-11-21T03:01:24.853Z,9.93
2017-11-21T03:02:05.408Z,9.9
2017-11-21T03:02:46.076Z,10.04
2017-11-21T03:03:26.644Z,10.02
2017-11-21T03:04:07.206Z,9.97
2017-11-21T03:04:47.757Z,9.99
2017-11-21T03:05:28.316Z,9.97
2017-11-21T03:06:08.882Z,9.99
2017-11-21T03:06:49.461Z,9.97
2017-11-21T03:07:30.012Z,10.01
2017-11-21T03:08:10.572Z,10.07
2017-11-21T03:08:51.153Z,10.08
2017-11-21T03:09:31.719Z,10.25
2017-11-21T03:10:12.298Z,10.18
2017-11-21T03:10:52.901Z,10.14
2017-11-21T03:11:33.446Z,10.17
2017-11-21T03:12:13.995Z,10.18
2017-11-21T03:12:54.541Z,10.12
2017-11-21T03:13:35.087Z,10.18
2017-11-21T03:14:15.639Z,10.22
2017-11-21T03:14:56.201Z,10.17
2017-11-21T03:15:36.756Z,10.22
2017-11-21T03:16:17.326Z,10.18
2017-11-21T03:16:58.785Z,10.18
2017-11-21T03:17:38.423Z,10.2
2017-11-21T03:19:26.426Z,10.15
2017-11-21T03:20:06.973Z,10.2
2017-11-21T03:20:47.554Z,10.17
2017-11-21T03:21:28.110Z,10.33
2017-11-21T03:22:08.843Z,10.32
2017-11-21T03:22:49.393Z,10.29
2017-11-21T03:23:29.952Z,10.23
2017-11-21T03:24:10.488Z,10.26
2017-11-21T03:24:51.047Z,10.27
2017-11-21T03:25:31.608Z,10.38
2017-11-21T03:26:12.179Z,10.36
2017-11-21T03:26:52.736Z,10.38
2017-11-21T03:27:33.267Z,10.34
2017-11-21T03:28:13.826Z,10.4
2017-11-21T03:28:54.389Z,10.32
2017-11-21T03:29:34.954Z,10.33
2017-11-21T03:30:15.531Z,10.36
2017-11-21T03:30:56.078Z,10.36
2017-11-21T03:31:36.655Z,10.33
2017-11-21T03:32:17.202Z,10.44
2017-11-21T03:32:57.740Z,10.33
2017-11-21T03:33:38.324Z,10.36
2017-11-21T03:34:18.905Z,10.41
2017-11-21T03:34:59.392Z,10.32
2017-11-21T03:35:39.939Z,10.42
2017-11-21T03:36:20.506Z,10.29
2017-11-21T03:37:01.068Z,10.18
2017-11-21T03:37:41.626Z,10.15
2017-11-21T03:38:22.191Z,10.27
2017-11-21T03:39:02.723Z,10.18
2017-11-21T03:39:43.270Z,10.22
2017-11-21T03:40:23.841Z,10.15
2017-11-21T03:41:04.410Z,10.2
2017-11-21T03:41:44.973Z,10.17
2017-11-21T03:42:25.554Z,10.14
2017-11-21T03:43:06.103Z,10.17
2017-11-21T03:43:46.661Z,10.18
2017-11-21T03:44:27.226Z,10.04
2017-11-21T03:45:07.801Z,10.05
2017-11-21T03:45:48.369Z,10.22
2017-11-21T03:46:28.911Z,10.15
2017-11-21T03:47:09.496Z,10.18
2017-11-21T03:47:50.037Z,10.23
2017-11-21T03:48:30.611Z,10.26
2017-11-21T03:49:11.188Z,10.34
2017-11-21T03:49:51.736Z,10.33
2017-11-21T03:50:32.290Z,10.32
2017-11-21T03:51:12.863Z,10.36
2017-11-21T03:51:53.407Z,10.36
2017-11-21T03:52:33.976Z,10.3
2017-11-21T03:53:14.526Z,10.3
2017-11-21T03:53:55.081Z,10.33
2017-11-21T03:54:35.657Z,10.3
2017-11-21T03:55:16.211Z,10.29
2017-11-21T03:55:56.762Z,10.32
2017-11-21T03:56:37.344Z,10.27
2017-11-21T03:57:17.945Z,10.29
2017-11-21T03:57:58.501Z,10.22
2017-11-21T03:58:39.061Z,10.18
2017-11-21T03:59:19.609Z,10.18
2017-11-21T04:00:00.162Z,10.2
2017-11-21T04:00:40.714Z,10.14
2017-11-21T04:01:21.279Z,10.12
2017-11-21T04:02:01.848Z,10.15
2017-11-21T04:02:42.368Z,10.04
2017-11-21T04:03:22.914Z,10.08
2017-11-21T04:04:03.478Z,10.11
2017-11-21T04:04:44.038Z,10.11
2017-11-21T04:05:24.608Z,10.14
2017-11-21T04:06:05.326Z,10.02
2017-11-21T04:06:45.888Z,10.01
2017-11-21T04:07:26.447Z,10.07
2017-11-21T04:08:07.008Z,10.04
2017-11-21T04:08:47.573Z,10.04
2017-11-21T04:09:28.151Z,10.04
2017-11-21T04:10:08.707Z,10.07
2017-11-21T04:10:49.264Z,10.07
2017-11-21T04:11:29.825Z,10.17
2017-11-21T04:12:10.416Z,10.05
2017-11-21T04:12:50.968Z,10.22
2017-11-21T04:13:31.515Z,10.17
2017-11-21T04:14:12.081Z,10.11
2017-11-21T04:14:52.614Z,10.12
2017-11-21T04:15:33.168Z,10.23
2017-11-21T04:16:13.731Z,10.27
2017-11-21T04:16:54.288Z,10.3
2017-11-21T04:17:34.856Z,10.25
2017-11-21T04:18:15.420Z,10.2
2017-11-21T04:18:55.995Z,10.12
2017-11-21T04:19:36.538Z,10.15
2017-11-21T04:20:17.108Z,10.22
2017-11-21T04:20:57.678Z,10.18
2017-11-21T04:21:38.229Z,10.14
2017-11-21T04:22:18.791Z,10.3
2017-11-21T04:22:59.349Z,10.18
2017-11-21T04:23:39.915Z,10.18
2017-11-21T04:24:20.530Z,10.2
2017-11-21T04:25:01.134Z,10.3
2017-11-21T04:25:41.641Z,10.26
2017-11-21T04:26:22.179Z,10.3
2017-11-21T04:27:02.731Z,10.23
2017-11-21T04:27:43.287Z,10.15
2017-11-21T04:28:23.824Z,10.29
2017-11-21T04:29:04.387Z,10.32
2017-11-21T04:29:44.948Z,10.14
2017-11-21T04:30:25.492Z,10.14
2017-11-21T04:31:06.046Z,10.18
2017-11-21T04:31:46.675Z,10.23
2017-11-21T04:32:27.242Z,10.15
2017-11-21T04:33:07.810Z,10.27
2017-11-21T04:33:48.374Z,10.2
2017-11-21T04:34:28.921Z,10.2
2017-11-21T04:35:09.483Z,10.29
2017-11-21T04:35:50.019Z,10.26
2017-11-21T04:36:30.595Z,10.14
2017-11-21T04:37:11.129Z,10.15
2017-11-21T04:37:51.717Z,10.32
2017-11-21T04:38:32.266Z,10.32
2017-11-21T04:39:12.840Z,10.32
2017-11-21T04:39:53.388Z,10.34
2017-11-21T04:40:33.960Z,10.34
2017-11-21T04:41:14.536Z,10.36
2017-11-21T04:41:55.086Z,10.38
2017-11-21T04:42:35.633Z,10.36
2017-11-21T04:43:16.193Z,10.38
2017-11-21T04:43:56.732Z,10.32
2017-11-21T04:44:37.318Z,10.25
2017-11-21T04:45:17.862Z,10.15
2017-11-21T04:45:58.419Z,10.18
2017-11-21T04:46:39.024Z,10.15
2017-11-21T04:47:19.631Z,10.15
2017-11-21T04:48:00.182Z,10.23
2017-11-21T04:48:40.757Z,10.3
2017-11-21T04:49:21.325Z,10.23
2017-11-21T04:50:01.913Z,10.18
2017-11-21T04:50:42.457Z,10.29
2017-11-21T04:51:23.015Z,10.27
2017-11-21T04:52:03.577Z,10.26
2017-11-21T04:52:44.144Z,10.26
2017-11-21T04:53:24.688Z,10.17
2017-11-21T04:54:05.249Z,10.17
2017-11-21T04:54:45.884Z,10.15
2017-11-21T04:55:26.439Z,10.22
2017-11-21T04:56:06.999Z,10.14
2017-11-21T04:56:47.605Z,10.12
2017-11-21T04:57:28.193Z,10.22
2017-11-21T04:58:08.739Z,10.17
2017-11-21T04:58:49.278Z,10.23
2017-11-21T04:59:29.834Z,10.18
2017-11-21T05:00:10.390Z,10.3
2017-11-21T05:00:50.944Z,10.15
2017-11-21T05:01:31.502Z,10.08
2017-11-21T05:02:12.073Z,10.2
2017-11-21T05:02:52.605Z,10.12
2017-11-21T05:03:33.167Z,10.17
2017-11-21T05:04:13.716Z,10.15
2017-11-21T05:04:54.268Z,10.08
2017-11-21T05:05:34.838Z,10.09
2017-11-21T05:06:15.378Z,10.11
2017-11-21T05:06:55.932Z,10.12
2017-11-21T05:07:36.479Z,10.08
2017-11-21T05:08:17.040Z,10.12
2017-11-21T05:08:57.597Z,10.04
2017-11-21T05:09:38.173Z,9.97
2017-11-21T05:10:18.729Z,10.07
2017-11-21T05:10:59.300Z,10.09
2017-11-21T05:11:39.860Z,10.07
2017-11-21T05:12:20.427Z,10.11
2017-11-21T05:13:00.977Z,10.08
2017-11-21T05:13:41.560Z,10.08
2017-11-21T05:14:22.108Z,10.02
2017-11-21T05:15:02.697Z,10.02
2017-11-21T05:15:43.259Z,9.93
2017-11-21T05:16:23.792Z,9.93
2017-11-21T05:17:04.344Z,10.01
2017-11-21T05:17:44.906Z,9.89
2017-11-21T05:18:25.486Z,9.96
2017-11-21T05:19:06.050Z,9.94
2017-11-21T05:19:46.602Z,9.99
2017-11-21T05:20:27.157Z,9.96
2017-11-21T05:21:07.797Z,10.01
2017-11-21T05:21:48.374Z,10.02
2017-11-21T05:22:28.964Z,10.02
2017-11-21T05:23:09.511Z,9.91
2017-11-21T05:23:50.067Z,9.94
2017-11-21T05:24:30.629Z,9.96
2017-11-21T05:25:11.210Z,9.97
2017-11-21T05:25:51.782Z,9.97
2017-11-21T05:26:32.357Z,9.97
2017-11-21T05:27:12.904Z,10.01
2017-11-21T05:27:53.460Z,9.96
2017-11-21T05:28:34.018Z,10.02
2017-11-21T05:29:14.577Z,10.09
2017-11-21T05:29:55.117Z,10.01
2017-11-21T05:30:35.669Z,9.99
2017-11-21T05:31:16.224Z,9.91
2017-11-21T05:31:56.785Z,10.02
2017-11-21T05:32:37.362Z,9.93
2017-11-21T05:33:17.942Z,10.01
2017-11-21T05:33:58.491Z,10.01
2017-11-21T05:34:39.058Z,9.94
2017-11-21T05:35:19.632Z,9.94
2017-11-21T05:36:00.184Z,9.9
2017-11-21T05:36:40.748Z,9.96
2017-11-21T05:37:21.304Z,10.01
2017-11-21T05:38:01.896Z,9.86
2017-11-21T05:38:42.455Z,9.93
2017-11-21T05:39:23.032Z,9.97
2017-11-21T05:40:03.594Z,10.01
2017-11-21T05:40:44.146Z,10.02
2017-11-21T05:41:24.720Z,10.08
2017-11-21T05:42:05.269Z,10.02
2017-11-21T05:42:45.825Z,9.97
2017-11-21T05:43:26.382Z,10.02
2017-11-21T05:44:06.929Z,10.04
2017-11-21T05:44:47.488Z,10.11
2017-11-21T05:45:28.042Z,10.05
2017-11-21T05:46:08.592Z,10.11
2017-11-21T05:46:49.140Z,10.01
2017-11-21T05:47:29.716Z,10.2
2017-11-21T05:48:10.270Z,10.17
2017-11-21T05:48:50.831Z,10.17
2017-11-21T05:49:31.370Z,10.2
2017-11-21T05:50:11.919Z,10.25
2017-11-21T05:50:52.494Z,10.33
2017-11-21T05:51:33.047Z,10.23
2017-11-21T05:52:13.607Z,10.22
2017-11-21T05:52:54.202Z,10.25
2017-11-21T05:53:34.800Z,10.22
2017-11-21T05:54:15.320Z,10.23
2017-11-21T05:54:55.881Z,10.14
2017-11-21T05:55:36.530Z,10.17
2017-11-21T05:56:17.093Z,10.22
2017-11-21T05:56:57.644Z,10.18
2017-11-21T05:57:38.186Z,10.25
2017-11-21T05:58:18.746Z,10.29
2017-11-21T05:58:59.313Z,10.27
2017-11-21T05:59:39.869Z,10.2
2017-11-21T06:00:20.448Z,10.2
2017-11-21T06:01:01.002Z,10.22
2017-11-21T06:01:41.596Z,10.26
2017-11-21T06:02:22.146Z,10.26
2017-11-21T06:03:02.731Z,10.27
2017-11-21T06:03:43.284Z,10.27
2017-11-21T06:04:23.856Z,10.32
2017-11-21T06:05:04.406Z,10.29
2017-11-21T06:05:44.967Z,10.22
2017-11-21T06:06:25.553Z,10.29
2017-11-21T06:07:06.119Z,10.33
2017-11-21T06:07:46.691Z,10.29
2017-11-21T06:08:27.247Z,10.3
2017-11-21T06:09:07.792Z,10.23
2017-11-21T06:09:48.345Z,10.23
2017-11-21T06:10:28.896Z,10.27
2017-11-21T06:11:09.459Z,10.33
2017-11-21T06:11:50.033Z,10.36
2017-11-21T06:12:30.579Z,10.3
2017-11-21T06:13:11.132Z,10.34
2017-11-21T06:13:51.717Z,10.34
2017-11-21T06:14:32.267Z,10.3
2017-11-21T06:15:12.839Z,10.22
2017-11-21T06:15:53.436Z,10.17
2017-11-21T06:16:33.998Z,10.29
2017-11-21T06:17:14.556Z,10.25
2017-11-21T06:17:55.152Z,10.17
2017-11-21T06:18:35.700Z,10.17
2017-11-21T06:19:16.285Z,10.23
2017-11-21T06:19:56.839Z,10.2
2017-11-21T06:20:37.389Z,10.2
2017-11-21T06:21:17.981Z,10.08
2017-11-21T06:21:58.462Z,10.22
2017-11-21T06:22:39.013Z,10.05
2017-11-21T06:23:19.561Z,10.14
2017-11-21T06:24:00.120Z,10.14
2017-11-21T06:24:40.697Z,10.2
2017-11-21T06:25:21.259Z,10.09
2017-11-21T06:26:01.929Z,10.04
2017-11-21T06:26:42.503Z,10.09
2017-11-21T06:27:23.004Z,9.97
2017-11-21T06:28:03.576Z,9.91
2017-11-21T06:28:44.129Z,9.93
2017-11-21T06:29:24.682Z,10.01
2017-11-21T06:30:05.240Z,10.02
2017-11-21T06:30:45.812Z,9.99
2017-11-21T06:31:26.418Z,9.93
2017-11-21T06:32:06.959Z,9.91
2017-11-21T06:32:47.521Z,9.87
2017-11-21T06:33:28.107Z,9.96
2017-11-21T06:34:08.683Z,9.97
2017-11-21T06:34:49.242Z,10.02
2017-11-21T06:35:29.800Z,9.94
2017-11-21T06:36:10.349Z,9.99
2017-11-21T06:36:51.216Z,10.08
2017-11-21T06:37:31.776Z,9.96
2017-11-21T06:38:12.305Z,10.01
2017-11-21T06:38:52.881Z,10.12
2017-11-21T06:39:33.434Z,10.07
2017-11-21T06:40:13.997Z,10.15
2017-11-21T06:40:54.561Z,10.18
2017-11-21T06:41:35.119Z,10.08
2017-11-21T06:42:15.699Z,10.15
2017-11-21T06:42:56.272Z,10.08
2017-11-21T06:43:36.859Z,10.17
2017-11-21T06:44:17.556Z,10.11
2017-11-21T06:44:58.120Z,10.04
2017-11-21T06:45:38.735Z,10.04
2017-11-21T06:46:19.325Z,10.15
2017-11-21T06:46:59.941Z,10.07
2017-11-21T06:47:40.508Z,10.05
2017-11-21T06:48:21.078Z,10.14
2017-11-21T06:49:01.668Z,10.07
2017-11-21T06:49:42.306Z,9.97
2017-11-21T06:50:23.763Z,9.94
2017-11-21T06:51:04.310Z,9.93
2017-11-21T06:51:44.842Z,10.01
2017-11-21T06:52:25.413Z,10.01
2017-11-21T06:53:05.961Z,9.99
2017-11-21T06:53:46.532Z,10.07
2017-11-21T06:54:27.080Z,9.97
2017-11-21T06:55:07.649Z,10.07
2017-11-21T06:55:48.250Z,10.02
2017-11-21T06:56:28.812Z,10.07
2017-11-21T06:57:09.369Z,10.07
2017-11-21T06:57:50.063Z,10.04
2017-11-21T06:58:30.616Z,10.05
2017-11-21T06:59:11.211Z,10.27
2017-11-21T06:59:51.758Z,10.32
2017-11-21T07:00:32.322Z,10.23
2017-11-21T07:01:12.897Z,10.14
2017-11-21T07:01:53.479Z,10.15
2017-11-21T07:02:34.102Z,10.26
2017-11-21T07:03:14.641Z,10.32
2017-11-21T07:03:55.177Z,10.42
2017-11-21T07:04:35.787Z,10.52
2017-11-21T07:05:16.373Z,10.42
2017-11-21T07:05:56.908Z,10.29
2017-11-21T07:06:37.669Z,10.32
2017-11-21T07:07:18.294Z,10.34
2017-11-21T07:07:58.886Z,10.42
2017-11-21T07:08:39.513Z,10.47
2017-11-21T07:09:20.087Z,10.42
2017-11-21T07:10:00.646Z,10.48
2017-11-21T07:10:41.216Z,10.51
2017-11-21T07:11:21.798Z,10.63
2017-11-21T07:12:02.360Z,10.59
2017-11-21T07:12:42.916Z,10.52
2017-11-21T07:13:23.480Z,10.63
2017-11-21T07:14:04.058Z,10.66
2017-11-21T07:14:44.599Z,10.53
2017-11-21T07:15:25.147Z,10.84
2017-11-21T07:16:05.701Z,10.89
2017-11-21T07:16:46.272Z,10.92
2017-11-21T07:17:26.832Z,11.1
2017-11-21T07:18:07.387Z,11.17
2017-11-21T07:18:48.026Z,11.37
2017-11-21T07:19:28.523Z,11.61
2017-11-21T07:20:09.125Z,11.88
2017-11-21T07:20:49.783Z,11.96
2017-11-21T07:21:30.346Z,11.99
2017-11-21T07:22:10.895Z,12.31
2017-11-21T07:22:51.466Z,12.28
2017-11-21T07:23:32.042Z,12.38
2017-11-21T07:24:12.598Z,12.28
2017-11-21T07:24:53.172Z,12.47
2017-11-21T07:25:33.723Z,11.99
2017-11-21T07:26:14.268Z,11.46
2017-11-21T07:26:54.900Z,11.27
2017-11-21T07:27:35.471Z,11.06
2017-11-21T07:28:16.063Z,10.84
2017-11-21T07:28:56.627Z,10.99
2017-11-21T07:29:37.213Z,11.6
2017-11-21T07:30:17.780Z,11.99
2017-11-21T07:30:58.321Z,12.5
2017-11-21T07:31:38.836Z,12.89
2017-11-21T07:32:19.415Z,12.97
2017-11-21T07:32:59.990Z,13.04
2017-11-21T07:33:40.677Z,13.11
2017-11-21T07:34:21.277Z,13.01
2017-11-21T07:35:01.851Z,12.95
2017-11-21T07:35:42.428Z,12.53
2017-11-21T07:36:23.045Z,12.37
2017-11-21T07:37:03.604Z,12.65
2017-11-21T07:37:44.181Z,12.93
2017-11-21T07:38:24.747Z,12.83
2017-11-21T07:39:05.296Z,12.62
2017-11-21T07:39:45.875Z,12.62
2017-11-21T07:40:26.460Z,12.52
2017-11-21T07:41:07.011Z,11.99
2017-11-21T07:41:47.603Z,11.78
2017-11-21T07:42:28.177Z,11.55
2017-11-21T07:43:08.762Z,11.21
2017-11-21T07:43:49.316Z,10.96
2017-11-21T07:44:29.938Z,11
2017-11-21T07:45:10.521Z,10.99
2017-11-21T07:45:51.113Z,10.97
2017-11-21T07:46:31.677Z,11.49
2017-11-21T07:47:12.227Z,11.47
2017-11-21T07:47:52.784Z,11.47
2017-11-21T07:48:33.327Z,11.62
2017-11-21T07:49:13.876Z,11.65
2017-11-21T07:49:54.425Z,11.78
2017-11-21T07:50:34.978Z,11.67
2017-11-21T07:51:15.727Z,11.55
2017-11-21T07:51:56.352Z,11.57
2017-11-21T07:52:37.032Z,11.42
2017-11-21T07:53:17.693Z,11.15
2017-11-21T07:53:58.291Z,11.03
2017-11-21T07:54:38.793Z,10.94
2017-11-21T07:55:19.381Z,10.86
2017-11-21T07:55:59.898Z,10.94
2017-11-21T07:56:40.563Z,11.04
2017-11-21T07:57:21.127Z,11.11
2017-11-21T07:58:01.727Z,11.03
2017-11-21T07:58:42.286Z,11.21
2017-11-21T07:59:22.857Z,11.15
2017-11-21T08:00:03.419Z,11.03
2017-11-21T08:00:43.989Z,10.97
2017-11-21T08:01:24.549Z,11.15
2017-11-21T08:02:05.133Z,11.19
2017-11-21T08:02:45.702Z,11.22
2017-11-21T08:03:26.281Z,10.94
2017-11-21T08:04:06.861Z,11.04
2017-11-21T08:04:47.421Z,11.06
2017-11-21T08:05:27.978Z,11.18
2017-11-21T08:06:08.537Z,11.28
2017-11-21T08:06:49.089Z,11.32
2017-11-21T08:07:29.658Z,11.35
2017-11-21T08:08:10.238Z,11.42
2017-11-21T08:08:50.812Z,11.39
2017-11-21T08:09:31.355Z,11.35
2017-11-21T08:10:11.923Z,11.33
2017-11-21T08:10:52.486Z,11.35
2017-11-21T08:11:33.052Z,11.49
2017-11-21T08:12:13.621Z,11.8
2017-11-21T08:12:54.158Z,12.14
2017-11-21T08:13:34.743Z,12.56
2017-11-21T08:14:15.284Z,12.96
2017-11-21T08:14:55.835Z,12.96
2017-11-21T08:15:36.409Z,12.65
2017-11-21T08:16:16.985Z,12.7
2017-11-21T08:16:57.516Z,12.6
2017-11-21T08:17:38.084Z,12.5
2017-11-21T08:18:18.653Z,12.87
2017-11-21T08:18:59.206Z,12.96
2017-11-21T08:19:39.755Z,12.72
2017-11-21T08:20:20.307Z,12.5
2017-11-21T08:21:00.868Z,12.65
2017-11-21T08:21:41.418Z,12.89
2017-11-21T08:22:21.975Z,12.83
2017-11-21T08:23:02.542Z,12.49
2017-11-21T08:23:43.152Z,12.09
2017-11-21T08:24:23.715Z,11.8
2017-11-21T08:25:04.272Z,11.8
2017-11-21T08:25:44.847Z,11.72
2017-11-21T08:26:25.400Z,11.65
2017-11-21T08:27:05.972Z,12.1
2017-11-21T08:27:46.537Z,12.67
2017-11-21T08:28:27.107Z,13.07
2017-11-21T08:29:07.919Z,13.59
2017-11-21T08:29:48.496Z,13.45
2017-11-21T08:30:29.069Z,13.17
2017-11-21T08:31:09.624Z,13.44
2017-11-21T08:31:50.172Z,13.6
2017-11-21T08:32:30.767Z,13.54
2017-11-21T08:33:11.394Z,13.36
2017-11-21T08:33:51.993Z,13.33
2017-11-21T08:34:32.547Z,13.46
2017-11-21T08:35:13.424Z,13.08
2017-11-21T08:35:54.006Z,13
2017-11-21T08:36:34.769Z,13.01
2017-11-21T08:37:16.206Z,12.97
2017-11-21T08:37:56.845Z,12.17
2017-11-21T08:38:37.408Z,11.91
2017-11-21T08:39:17.957Z,11.95
2017-11-21T08:39:58.558Z,11.85
2017-11-21T08:40:39.118Z,11.58
2017-11-21T08:41:19.656Z,11.51
2017-11-21T08:42:00.234Z,11.35
2017-11-21T08:42:40.812Z,11.32
2017-11-21T08:43:21.615Z,11.46
2017-11-21T08:44:02.184Z,11.28
2017-11-21T08:44:42.867Z,11.37
2017-11-21T08:45:23.441Z,11.22
2017-11-21T08:46:04.032Z,11.35
2017-11-21T08:46:44.583Z,11.44
2017-11-21T08:47:25.140Z,11.61
2017-11-21T08:48:05.704Z,12.04
2017-11-21T08:48:46.256Z,12.38
2017-11-21T08:49:26.834Z,12.39
2017-11-21T08:50:07.385Z,12.14
2017-11-21T08:50:47.975Z,11.8
2017-11-21T08:51:28.524Z,11.86
2017-11-21T08:52:09.112Z,11.73
2017-11-21T08:52:49.677Z,11.75
2017-11-21T08:53:30.285Z,11.72